createdAt,value
2019-02-20T00:01:42.749Z,14.60
2019-02-20T00:04:13.503Z,13.97
2019-02-20T00:06:44.284Z,14.20
2019-02-20T00:09:15.037Z,13.50
2019-02-20T00:11:45.856Z,14.30
2019-02-20T00:14:16.593Z,15.07
2019-02-20T00:16:47.414Z,13.90
2019-02-20T00:19:20.195Z,13.10
2019-02-20T00:21:50.896Z,13.35
2019-02-20T00:24:21.665Z,12.50
2019-02-20T00:26:52.526Z,14.13
2019-02-20T00:29:23.298Z,13.73
2019-02-20T00:31:54.101Z,13.40
2019-02-20T00:34:24.861Z,13.13
2019-02-20T00:36:55.655Z,13.57
2019-02-20T00:39:26.420Z,13.53
2019-02-20T00:41:57.182Z,14.70
2019-02-20T00:44:29.863Z,14.37
2019-02-20T00:47:08.147Z,14.55
2019-02-20T00:49:40.052Z,14.93
2019-02-20T00:52:12.720Z,13.68
2019-02-20T00:54:43.495Z,12.95
2019-02-20T00:57:14.255Z,13.90
2019-02-20T00:59:45.028Z,13.47
2019-02-20T01:02:15.792Z,12.77
2019-02-20T01:04:46.554Z,13.77
2019-02-20T01:07:17.320Z,13.03
2019-02-20T01:09:48.082Z,14.23
2019-02-20T01:12:18.851Z,12.57
2019-02-20T01:14:49.614Z,13.13
2019-02-20T01:17:20.367Z,13.00
2019-02-20T01:19:51.146Z,12.40
2019-02-20T01:22:21.907Z,15.37
2019-02-20T01:24:52.666Z,12.73
2019-02-20T01:27:23.463Z,13.83
2019-02-20T01:29:54.202Z,12.73
2019-02-20T01:32:24.954Z,14.90
2019-02-20T01:34:55.718Z,13.67
2019-02-20T01:37:26.487Z,11.83
2019-02-20T01:39:57.713Z,13.80
2019-02-20T01:42:28.449Z,13.68
2019-02-20T01:44:59.216Z,12.57
2019-02-20T01:47:29.976Z,14.10
2019-02-20T01:50:00.744Z,13.03
2019-02-20T01:52:31.512Z,13.67
2019-02-20T01:55:04.396Z,14.90
2019-02-20T01:57:35.163Z,13.70
2019-02-20T02:00:09.342Z,12.47
2019-02-20T02:02:40.096Z,15.13
2019-02-20T02:05:15.339Z,15.10
2019-02-20T02:07:43.541Z,15.30
2019-02-20T02:10:14.331Z,14.70
2019-02-20T02:12:45.092Z,13.90
2019-02-20T02:15:20.567Z,13.80
2019-02-20T02:17:48.592Z,13.10
2019-02-20T02:20:19.364Z,13.67
2019-02-20T02:22:50.124Z,14.50
2019-02-20T02:25:20.909Z,16.23
2019-02-20T02:27:51.672Z,14.90
2019-02-20T02:30:22.441Z,14.10
2019-02-20T02:32:53.201Z,14.70
2019-02-20T02:35:23.963Z,14.70
2019-02-20T02:37:54.736Z,15.40
2019-02-20T02:40:25.544Z,17.70
2019-02-20T02:42:56.320Z,15.53
2019-02-20T02:45:27.083Z,17.30
2019-02-20T02:47:57.867Z,15.77
2019-02-20T02:50:28.633Z,13.83
2019-02-20T02:52:59.402Z,15.03
2019-02-20T02:55:30.170Z,15.27
2019-02-20T02:58:00.931Z,16.23
2019-02-20T03:00:31.701Z,16.00
2019-02-20T03:03:02.462Z,16.37
2019-02-20T03:05:33.236Z,16.43
2019-02-20T03:08:03.991Z,15.23
2019-02-20T03:10:34.782Z,15.40
2019-02-20T03:13:05.554Z,14.17
2019-02-20T03:15:36.328Z,13.47
2019-02-20T03:18:07.085Z,14.73
2019-02-20T03:20:37.842Z,13.20
2019-02-20T03:23:08.611Z,13.40
2019-02-20T03:25:39.370Z,14.70
2019-02-20T03:28:10.152Z,13.70
2019-02-20T03:30:40.914Z,14.33
2019-02-20T03:33:11.686Z,15.13
2019-02-20T03:35:42.449Z,15.73
2019-02-20T03:38:13.217Z,16.53
2019-02-20T03:40:43.977Z,15.90
2019-02-20T03:43:14.753Z,16.60
2019-02-20T03:45:45.514Z,16.80
2019-02-20T03:48:16.293Z,14.77
2019-02-20T03:50:47.074Z,14.83
2019-02-20T03:53:17.855Z,16.57
2019-02-20T03:55:48.614Z,13.67
2019-02-20T03:58:19.377Z,15.30
2019-02-20T04:00:50.137Z,14.20
2019-02-20T04:03:20.911Z,14.40
2019-02-20T04:05:51.676Z,14.17
2019-02-20T04:08:22.451Z,13.83
2019-02-20T04:10:53.201Z,15.60
2019-02-20T04:13:23.972Z,16.30
2019-02-20T04:15:54.724Z,16.17
2019-02-20T04:18:25.492Z,14.73
2019-02-20T04:20:56.245Z,15.53
2019-02-20T04:23:27.021Z,17.43
2019-02-20T04:25:57.796Z,16.30
2019-02-20T04:28:28.561Z,16.20
2019-02-20T04:30:59.325Z,15.43
2019-02-20T04:33:30.096Z,17.20
2019-02-20T04:36:00.867Z,15.47
2019-02-20T04:38:31.635Z,16.07
2019-02-20T04:41:02.492Z,17.00
2019-02-20T04:43:33.298Z,16.33
2019-02-20T04:46:04.067Z,17.60
2019-02-20T04:48:34.832Z,16.13
2019-02-20T04:51:05.592Z,16.33
2019-02-20T04:53:36.373Z,15.80
2019-02-20T04:56:07.139Z,15.90
2019-02-20T04:58:37.899Z,16.57
2019-02-20T05:01:08.650Z,16.77
2019-02-20T05:03:39.425Z,14.10
2019-02-20T05:06:10.181Z,17.03
2019-02-20T05:08:40.951Z,16.17
2019-02-20T05:11:11.710Z,16.30
2019-02-20T05:13:42.473Z,16.27
2019-02-20T05:16:13.235Z,17.17
2019-02-20T05:18:44.008Z,17.57
2019-02-20T05:21:14.759Z,17.10
2019-02-20T05:23:45.537Z,17.27
2019-02-20T05:26:16.289Z,17.90
2019-02-20T05:28:47.053Z,18.30
2019-02-20T05:31:17.810Z,17.00
2019-02-20T05:33:48.574Z,17.80
2019-02-20T05:36:19.336Z,16.40
2019-02-20T05:38:50.108Z,17.80
2019-02-20T05:41:20.860Z,17.90
2019-02-20T05:43:51.633Z,17.47
2019-02-20T05:46:22.396Z,18.07
2019-02-20T05:48:53.184Z,20.80
2019-02-20T05:51:23.915Z,15.70
2019-02-20T05:53:54.707Z,19.80
2019-02-20T05:56:25.505Z,15.10
2019-02-20T05:58:56.368Z,18.37
2019-02-20T06:01:27.132Z,16.20
2019-02-20T06:03:57.898Z,15.80
2019-02-20T06:06:28.662Z,15.03
2019-02-20T06:08:59.442Z,17.87
2019-02-20T06:11:30.200Z,16.97
2019-02-20T06:14:00.963Z,16.67
2019-02-20T06:16:31.721Z,17.70
2019-02-20T06:19:02.488Z,17.77
2019-02-20T06:21:33.246Z,20.43
2019-02-20T06:24:04.013Z,15.23
2019-02-20T06:26:35.091Z,18.40
2019-02-20T06:29:05.864Z,16.30
2019-02-20T06:31:36.625Z,15.90
2019-02-20T06:34:07.659Z,18.17
2019-02-20T06:36:38.409Z,17.82
2019-02-20T06:39:09.180Z,17.73
2019-02-20T06:41:39.944Z,20.53
2019-02-20T06:44:10.711Z,17.13
2019-02-20T06:46:41.459Z,18.07
2019-02-20T06:49:12.226Z,14.60
2019-02-20T06:51:42.983Z,15.67
2019-02-20T06:54:13.772Z,19.40
2019-02-20T06:56:44.521Z,17.00
2019-02-20T06:59:15.290Z,15.80
2019-02-20T07:01:46.046Z,19.50
2019-02-20T07:04:16.824Z,18.17
2019-02-20T07:07:03.170Z,19.77
2019-02-20T07:09:52.323Z,28.42
2019-02-20T07:12:35.453Z,22.60
2019-02-20T07:15:12.779Z,24.70
2019-02-20T07:17:50.340Z,24.60
2019-02-20T07:20:58.846Z,23.30
2019-02-20T07:23:36.131Z,18.98
2019-02-20T07:26:30.906Z,24.20
2019-02-20T07:29:28.454Z,22.48
2019-02-20T07:31:59.234Z,19.30
2019-02-20T07:34:29.982Z,23.30
2019-02-20T07:37:00.752Z,22.40
2019-02-20T07:39:31.512Z,21.53
2019-02-20T07:42:02.280Z,21.23
2019-02-20T07:44:33.034Z,18.63
2019-02-20T07:47:03.819Z,22.40
2019-02-20T07:49:34.574Z,26.50
2019-02-20T07:52:05.334Z,20.73
2019-02-20T07:54:36.109Z,20.97
2019-02-20T07:57:06.866Z,22.17
2019-02-20T07:59:37.622Z,26.37
2019-02-20T08:02:08.393Z,21.20
2019-02-20T08:04:39.158Z,22.37
2019-02-20T08:07:09.918Z,22.67
2019-02-20T08:09:40.686Z,24.40
2019-02-20T08:12:11.460Z,22.00
2019-02-20T08:14:42.217Z,20.60
2019-02-20T08:17:12.985Z,22.57
2019-02-20T08:19:43.754Z,27.27
2019-02-20T08:22:14.530Z,22.07
2019-02-20T08:24:45.289Z,24.67
2019-02-20T08:27:16.064Z,24.87
2019-02-20T08:29:46.820Z,21.83
2019-02-20T08:32:17.582Z,23.47
2019-02-20T08:34:48.341Z,28.83
2019-02-20T08:37:19.949Z,24.30
2019-02-20T08:39:50.897Z,24.20
2019-02-20T08:42:21.642Z,20.93
2019-02-20T08:44:52.396Z,19.40
2019-02-20T08:47:23.168Z,20.77
2019-02-20T08:49:54.507Z,23.90
2019-02-20T08:52:25.310Z,22.25
2019-02-20T08:54:56.088Z,21.67
2019-02-20T08:57:26.857Z,22.43
2019-02-20T08:59:58.671Z,21.57
2019-02-20T09:02:29.447Z,23.12
2019-02-20T09:05:00.365Z,22.57
2019-02-20T09:07:31.183Z,22.07
2019-02-20T09:10:04.240Z,24.30
2019-02-20T09:12:35.015Z,21.33
2019-02-20T09:15:08.979Z,20.73
2019-02-20T09:17:39.755Z,22.95
2019-02-20T09:20:10.530Z,20.43
2019-02-20T09:22:41.310Z,20.27
2019-02-20T09:25:19.576Z,22.47
2019-02-20T09:27:44.735Z,19.80
2019-02-20T09:30:15.488Z,19.63
2019-02-20T09:32:46.270Z,18.13
2019-02-20T09:35:17.022Z,18.23
2019-02-20T09:37:47.811Z,19.03
2019-02-20T09:40:18.574Z,18.37
2019-02-20T09:42:50.743Z,17.60
2019-02-20T09:45:21.508Z,18.80
2019-02-20T09:47:52.278Z,16.33
2019-02-20T09:50:23.049Z,17.17
2019-02-20T09:52:54.125Z,19.30
2019-02-20T09:55:24.894Z,19.55
2019-02-20T09:57:55.663Z,17.37
2019-02-20T10:00:26.449Z,20.33
2019-02-20T10:02:57.285Z,20.20
2019-02-20T10:05:28.134Z,19.70
2019-02-20T10:07:58.884Z,19.83
2019-02-20T10:10:29.648Z,18.23
2019-02-20T10:13:00.415Z,18.53
2019-02-20T10:15:31.215Z,18.83
2019-02-20T10:18:01.989Z,18.77
2019-02-20T10:20:32.762Z,18.70
2019-02-20T10:23:03.522Z,18.77
2019-02-20T10:25:34.340Z,19.60
2019-02-20T10:28:05.104Z,19.87
2019-02-20T10:30:35.870Z,20.17
2019-02-20T10:33:06.645Z,18.87
2019-02-20T10:35:37.417Z,19.67
2019-02-20T10:38:08.174Z,20.13
2019-02-20T10:40:38.952Z,20.53
2019-02-20T10:43:09.725Z,19.70
2019-02-20T10:45:40.492Z,20.50
2019-02-20T10:48:11.268Z,20.93
2019-02-20T10:50:42.049Z,21.57
2019-02-20T10:53:12.834Z,21.07
2019-02-20T10:55:43.608Z,19.00
2019-02-20T10:58:14.380Z,20.43
2019-02-20T11:00:45.177Z,19.83
2019-02-20T11:03:17.027Z,21.03
2019-02-20T11:05:47.831Z,19.25
2019-02-20T11:08:18.592Z,19.87
2019-02-20T11:10:49.360Z,20.23
2019-02-20T11:13:20.118Z,20.60
2019-02-20T11:15:50.915Z,20.80
2019-02-20T11:18:21.678Z,18.63
2019-02-20T11:20:52.460Z,20.37
2019-02-20T11:23:23.237Z,19.60
2019-02-20T11:25:54.017Z,19.10
2019-02-20T11:28:26.954Z,19.93
2019-02-20T11:30:57.492Z,18.37
2019-02-20T11:33:28.256Z,19.03
2019-02-20T11:35:59.026Z,17.37
2019-02-20T11:38:30.967Z,19.33
2019-02-20T11:41:02.370Z,17.45
2019-02-20T11:43:33.140Z,17.35
2019-02-20T11:46:03.928Z,18.03
2019-02-20T11:48:34.704Z,18.63
2019-02-20T11:51:05.481Z,19.40
2019-02-20T11:53:37.443Z,17.60
2019-02-20T11:56:08.334Z,16.87
2019-02-20T11:58:39.099Z,17.83
2019-02-20T12:01:09.870Z,18.67
2019-02-20T12:03:40.632Z,18.00
2019-02-20T12:06:11.409Z,19.40
2019-02-20T12:08:42.173Z,18.77
2019-02-20T12:11:12.941Z,19.23
2019-02-20T12:13:43.699Z,18.33
2019-02-20T12:16:14.949Z,19.60
2019-02-20T12:18:45.718Z,18.42
2019-02-20T12:21:17.404Z,19.20
2019-02-20T12:23:48.262Z,17.67
2019-02-20T12:26:19.349Z,18.10
2019-02-20T12:28:50.100Z,20.35
2019-02-20T12:31:20.864Z,18.40
2019-02-20T12:33:52.334Z,20.23
2019-02-20T12:36:23.206Z,18.40
2019-02-20T12:38:53.974Z,18.83
2019-02-20T12:41:24.803Z,19.27
2019-02-20T12:43:55.564Z,19.50
2019-02-20T12:46:26.354Z,21.00
2019-02-20T12:48:57.108Z,18.87
2019-02-20T12:51:27.875Z,18.73
2019-02-20T12:53:58.653Z,18.77
2019-02-20T12:56:29.485Z,18.10
2019-02-20T12:59:07.613Z,18.10
2019-02-20T13:01:32.919Z,18.60
2019-02-20T13:04:03.689Z,18.60
2019-02-20T13:06:34.480Z,17.27
2019-02-20T13:09:07.338Z,18.20
2019-02-20T13:11:38.310Z,17.43
2019-02-20T13:14:09.071Z,16.47
2019-02-20T13:16:39.847Z,17.10
2019-02-20T13:19:10.614Z,16.40
2019-02-20T13:21:41.395Z,18.83
2019-02-20T13:24:12.151Z,17.07
2019-02-20T13:26:42.935Z,17.17
2019-02-20T13:29:13.690Z,19.30
2019-02-20T13:31:44.480Z,54.57
2019-02-20T13:34:15.237Z,17.10
2019-02-20T13:36:46.046Z,29.70
2019-02-20T13:39:16.878Z,17.10
2019-02-20T13:41:47.664Z,16.17
2019-02-20T13:44:18.424Z,17.20
2019-02-20T13:46:49.285Z,16.33
2019-02-20T13:49:20.264Z,17.70
2019-02-20T13:51:51.033Z,18.80
2019-02-20T13:54:21.800Z,17.97
2019-02-20T13:57:01.448Z,18.03
2019-02-20T13:59:25.480Z,19.13
2019-02-20T14:01:56.624Z,17.67
2019-02-20T14:04:27.387Z,19.10
2019-02-20T14:06:59.751Z,17.30
2019-02-20T14:09:30.768Z,17.90
2019-02-20T14:12:01.531Z,17.77
2019-02-20T14:14:32.323Z,18.97
2019-02-20T14:17:03.092Z,17.40
2019-02-20T14:19:33.868Z,17.73
2019-02-20T14:22:04.664Z,17.90
2019-02-20T14:24:35.429Z,18.70
2019-02-20T14:27:10.825Z,18.17
2019-02-20T14:29:39.511Z,17.67
2019-02-20T14:32:10.286Z,17.50
2019-02-20T14:34:41.119Z,16.40
2019-02-20T14:37:11.886Z,16.90
2019-02-20T14:39:42.690Z,17.70
2019-02-20T14:42:13.657Z,15.13
2019-02-20T14:44:44.421Z,17.73
2019-02-20T14:47:15.175Z,15.60
2019-02-20T14:49:46.043Z,17.63
2019-02-20T14:52:18.672Z,18.43
2019-02-20T14:54:53.971Z,16.27
2019-02-20T14:57:24.771Z,15.90
2019-02-20T14:59:55.549Z,17.63
2019-02-20T15:02:26.397Z,16.80
2019-02-20T15:04:57.160Z,19.17
2019-02-20T15:07:27.924Z,15.37
2019-02-20T15:09:58.999Z,16.30
2019-02-20T15:12:29.759Z,15.70
2019-02-20T15:15:10.117Z,14.63
2019-02-20T15:17:33.232Z,14.67
2019-02-20T15:20:05.994Z,14.60
2019-02-20T15:22:37.178Z,16.07
2019-02-20T15:25:08.441Z,15.73
2019-02-20T15:27:39.220Z,14.47
2019-02-20T15:30:14.372Z,14.80
2019-02-20T15:32:45.237Z,15.80
2019-02-20T15:35:20.758Z,15.60
2019-02-20T15:37:52.593Z,16.23
2019-02-20T15:40:23.453Z,16.10
2019-02-20T15:42:54.366Z,15.53
2019-02-20T15:45:25.138Z,15.50
2019-02-20T15:47:56.259Z,15.00
2019-02-20T15:50:27.047Z,16.23
2019-02-20T15:52:58.324Z,16.63
2019-02-20T15:55:29.134Z,15.75
2019-02-20T15:58:00.007Z,16.47
2019-02-20T16:00:30.879Z,17.00
2019-02-20T16:03:01.840Z,16.70
2019-02-20T16:05:32.646Z,17.50
2019-02-20T16:08:03.460Z,16.30
2019-02-20T16:10:34.840Z,16.60
2019-02-20T16:13:07.850Z,16.20
2019-02-20T16:15:39.079Z,15.30
2019-02-20T16:18:09.894Z,16.23
2019-02-20T16:20:40.723Z,16.50
2019-02-20T16:23:11.566Z,16.00
2019-02-20T16:25:42.351Z,16.13
2019-02-20T16:28:13.114Z,18.10
2019-02-20T16:30:43.893Z,16.47
2019-02-20T16:33:14.650Z,17.00
2019-02-20T16:35:45.441Z,18.13
2019-02-20T16:38:16.203Z,17.90
2019-02-20T16:40:46.964Z,18.13
2019-02-20T16:43:18.183Z,18.02
2019-02-20T16:45:48.952Z,17.20
2019-02-20T16:48:19.916Z,17.83
2019-02-20T16:50:50.697Z,18.37
2019-02-20T16:53:21.463Z,17.97
2019-02-20T16:55:52.239Z,19.53
2019-02-20T16:58:23.016Z,19.17
2019-02-20T17:00:53.778Z,21.00
2019-02-20T17:03:24.559Z,20.67
2019-02-20T17:05:55.330Z,18.43
2019-02-20T17:08:26.216Z,19.83
2019-02-20T17:10:57.379Z,20.30
2019-02-20T17:13:28.171Z,20.57
2019-02-20T17:15:58.923Z,20.80
2019-02-20T17:18:29.688Z,18.40
2019-02-20T17:21:00.895Z,19.80
2019-02-20T17:23:31.678Z,20.02
2019-02-20T17:26:02.468Z,19.60
2019-02-20T17:28:33.230Z,18.60
2019-02-20T17:31:04.036Z,19.00
2019-02-20T17:33:34.839Z,19.70
2019-02-20T17:36:05.611Z,17.80
2019-02-20T17:38:36.674Z,17.65
2019-02-20T17:41:07.736Z,19.87
2019-02-20T17:43:38.441Z,20.40
2019-02-20T17:46:09.211Z,23.30
2019-02-20T17:48:39.992Z,19.50
2019-02-20T17:51:10.876Z,21.60
2019-02-20T17:53:41.662Z,20.30
2019-02-20T17:56:12.527Z,20.10
2019-02-20T17:58:43.289Z,21.53
2019-02-20T18:01:15.930Z,21.20
2019-02-20T18:03:47.084Z,20.52
2019-02-20T18:06:18.108Z,18.70
2019-02-20T18:08:48.961Z,19.63
2019-02-20T18:11:19.720Z,19.93
2019-02-20T18:13:50.490Z,22.67
2019-02-20T18:16:21.248Z,20.20
2019-02-20T18:18:52.014Z,29.00
2019-02-20T18:21:22.778Z,22.00
2019-02-20T18:23:53.577Z,21.43
2019-02-20T18:26:24.613Z,20.17
2019-02-20T18:28:55.436Z,19.57
2019-02-20T18:31:26.214Z,20.07
2019-02-20T18:33:57.009Z,20.60
2019-02-20T18:36:27.777Z,20.67
2019-02-20T18:38:58.532Z,19.83
2019-02-20T18:41:29.295Z,20.77
2019-02-20T18:44:00.075Z,24.17
2019-02-20T18:46:30.866Z,20.50
2019-02-20T18:49:14.737Z,21.97
2019-02-20T18:51:45.485Z,20.15
2019-02-20T18:54:16.255Z,19.80
2019-02-20T18:56:47.014Z,18.97
2019-02-20T18:59:17.798Z,24.53
2019-02-20T19:01:48.583Z,34.57
2019-02-20T19:04:19.369Z,58.80
2019-02-20T19:06:50.112Z,37.50
2019-02-20T19:09:24.103Z,29.00
2019-02-20T19:12:10.658Z,27.98
2019-02-20T19:15:05.017Z,29.37
2019-02-20T19:18:10.098Z,30.20
2019-02-20T19:20:54.061Z,27.48
2019-02-20T19:24:02.518Z,26.62
2019-02-20T19:26:43.102Z,23.87
2019-02-20T19:29:40.056Z,23.75
2019-02-20T19:32:17.719Z,25.40
2019-02-20T19:35:12.929Z,26.70
2019-02-20T19:37:50.751Z,24.35
2019-02-20T19:40:31.138Z,25.37
2019-02-20T19:43:11.206Z,23.77
2019-02-20T19:45:54.888Z,23.45
2019-02-20T19:48:32.312Z,24.82
2019-02-20T19:51:06.901Z,23.40
2019-02-20T19:53:43.998Z,25.17
2019-02-20T19:56:35.163Z,22.00
2019-02-20T19:59:19.039Z,21.77
2019-02-20T20:02:02.725Z,20.97
2019-02-20T20:04:58.490Z,22.87
2019-02-20T20:07:50.128Z,43.73
2019-02-20T20:10:30.972Z,37.53
2019-02-20T20:13:29.622Z,30.45
2019-02-20T20:16:27.142Z,23.40
2019-02-20T20:19:08.043Z,24.70
2019-02-20T20:21:49.081Z,23.25
2019-02-20T20:24:29.413Z,22.22
2019-02-20T20:27:13.191Z,23.00
2019-02-20T20:30:10.960Z,22.00
2019-02-20T20:33:20.875Z,18.85
2019-02-20T20:36:11.836Z,19.82
2019-02-20T20:39:00.751Z,21.95
2019-02-20T20:41:53.532Z,23.92
2019-02-20T20:44:47.973Z,23.62
2019-02-20T20:47:31.302Z,21.80
2019-02-20T20:50:17.840Z,22.48
2019-02-20T20:53:01.188Z,22.87
2019-02-20T20:56:07.379Z,22.75
2019-02-20T20:58:45.050Z,21.82
2019-02-20T21:01:39.391Z,20.60
2019-02-20T21:04:29.629Z,21.02
2019-02-20T21:07:26.796Z,23.73
2019-02-20T21:10:07.548Z,25.30
2019-02-20T21:13:05.108Z,24.23
2019-02-20T21:15:54.570Z,21.75
2019-02-20T21:18:44.432Z,24.80
2019-02-20T21:21:31.106Z,23.98
2019-02-20T21:24:15.054Z,23.10
2019-02-20T21:26:52.635Z,23.70
2019-02-20T21:29:30.265Z,24.63
2019-02-20T21:32:27.069Z,25.95
2019-02-20T21:35:04.157Z,23.67
2019-02-20T21:38:00.367Z,25.72
2019-02-20T21:40:34.938Z,24.82
2019-02-20T21:43:39.974Z,25.17
2019-02-20T21:46:20.490Z,23.92
2019-02-20T21:49:14.207Z,23.38
2019-02-20T21:51:54.844Z,25.68
2019-02-20T21:54:50.494Z,24.37
2019-02-20T21:57:34.032Z,23.30
2019-02-20T22:00:27.808Z,23.55
2019-02-20T22:03:26.958Z,21.93
2019-02-20T22:06:16.452Z,24.25
2019-02-20T22:09:19.820Z,21.42
2019-02-20T22:12:09.690Z,21.25
2019-02-20T22:15:01.008Z,22.70
2019-02-20T22:17:59.621Z,21.75
2019-02-20T22:20:43.490Z,23.00
2019-02-20T22:23:45.149Z,22.13
2019-02-20T22:26:25.440Z,21.23
2019-02-20T22:29:27.035Z,21.00
2019-02-20T22:32:32.335Z,21.75
2019-02-20T22:35:23.806Z,20.15
2019-02-20T22:38:18.132Z,20.52
2019-02-20T22:40:55.464Z,21.50
2019-02-20T22:43:30.078Z,21.23
2019-02-20T22:46:04.942Z,21.07
2019-02-20T22:48:48.350Z,19.67
2019-02-20T22:51:28.956Z,21.82
2019-02-20T22:54:15.452Z,22.00
2019-02-20T22:56:55.995Z,20.08
2019-02-20T22:59:42.347Z,21.23
2019-02-20T23:02:47.379Z,19.45
2019-02-20T23:05:37.252Z,20.97
2019-02-20T23:08:30.054Z,20.35
2019-02-20T23:11:23.027Z,20.55
2019-02-20T23:14:15.368Z,19.25
2019-02-20T23:16:46.235Z,20.00
2019-02-20T23:19:17.058Z,18.00
2019-02-20T23:21:47.808Z,20.40
2019-02-20T23:24:18.575Z,19.10
2019-02-20T23:26:49.343Z,18.97
2019-02-20T23:29:20.110Z,19.27
2019-02-20T23:31:50.872Z,19.87
2019-02-20T23:34:21.639Z,19.80
2019-02-20T23:36:52.514Z,20.00
2019-02-20T23:39:23.307Z,18.53
2019-02-20T23:41:54.085Z,19.03
2019-02-20T23:44:24.859Z,20.87
2019-02-20T23:46:55.615Z,20.30
2019-02-20T23:49:26.391Z,18.43
2019-02-20T23:51:57.149Z,19.37
2019-02-20T23:54:27.943Z,20.70
2019-02-20T23:56:58.711Z,23.67
2019-02-20T23:59:29.483Z,20.77
